createdAt,value
2024-01-21T00:00:12.498Z,4.93
2024-01-21T00:02:43.250Z,2.55
2024-01-21T00:05:11.079Z,3.80
2024-01-21T00:07:40.651Z,4.68
2024-01-21T00:10:10.641Z,2.38
2024-01-21T00:12:39.219Z,3.35
2024-01-21T00:15:08.607Z,3.20
2024-01-21T00:17:36.465Z,5.93
2024-01-21T00:20:06.382Z,2.85
2024-01-21T00:22:34.385Z,4.57
2024-01-21T00:25:02.138Z,4.60
2024-01-21T00:27:29.921Z,5.30
2024-01-21T00:29:57.676Z,5.35
2024-01-21T00:32:25.730Z,3.15
2024-01-21T00:34:53.618Z,5.07
2024-01-21T00:37:22.778Z,5.60
2024-01-21T00:39:50.739Z,4.93
2024-01-21T00:42:18.624Z,11.10
2024-01-21T00:44:46.387Z,2.75
2024-01-21T00:47:14.162Z,2.08
2024-01-21T00:49:42.365Z,3.13
2024-01-21T00:52:10.301Z,5.50
2024-01-21T00:54:39.475Z,2.55
2024-01-21T00:57:07.706Z,1.85
2024-01-21T00:59:35.524Z,2.28
2024-01-21T01:02:03.344Z,4.18
2024-01-21T01:04:31.275Z,3.85
2024-01-21T01:06:59.052Z,4.53
2024-01-21T01:09:26.895Z,3.67
2024-01-21T01:11:56.018Z,1.40
2024-01-21T01:14:23.768Z,1.00
2024-01-21T01:16:51.635Z,2.58
2024-01-21T01:19:19.478Z,2.15
2024-01-21T01:21:47.397Z,3.10
2024-01-21T01:24:15.264Z,3.42
2024-01-21T01:26:43.078Z,2.80
2024-01-21T01:29:12.185Z,3.05
2024-01-21T01:31:39.957Z,5.10
2024-01-21T01:34:08.176Z,1.42
2024-01-21T01:36:36.018Z,1.83
2024-01-21T01:39:03.860Z,3.40
2024-01-21T01:41:31.605Z,2.55
2024-01-21T01:43:59.411Z,4.00
2024-01-21T01:46:28.557Z,1.23
2024-01-21T01:48:56.693Z,2.25
2024-01-21T01:51:24.561Z,3.10
2024-01-21T01:53:53.046Z,4.93
2024-01-21T01:56:21.320Z,2.20
2024-01-21T01:58:50.279Z,3.88
2024-01-21T02:01:18.936Z,2.15
2024-01-21T02:03:48.963Z,4.68
2024-01-21T02:06:17.688Z,1.58
2024-01-21T02:08:45.593Z,2.33
2024-01-21T02:11:13.341Z,2.92
2024-01-21T02:13:41.244Z,1.27
2024-01-21T02:16:09.185Z,1.98
2024-01-21T02:18:38.492Z,1.98
2024-01-21T02:21:08.192Z,2.40
2024-01-21T02:23:37.317Z,1.70
2024-01-21T02:26:05.387Z,1.80
2024-01-21T02:28:33.182Z,1.63
2024-01-21T02:31:00.953Z,1.92
2024-01-21T02:33:28.940Z,3.13
2024-01-21T02:35:56.710Z,1.60
2024-01-21T02:38:24.670Z,3.40
2024-01-21T02:40:53.809Z,3.05
2024-01-21T02:43:21.648Z,2.00
2024-01-21T02:45:49.597Z,2.00
2024-01-21T02:48:17.842Z,3.35
2024-01-21T02:50:45.820Z,1.75
2024-01-21T02:53:13.602Z,1.10
2024-01-21T02:55:41.358Z,3.55
2024-01-21T02:58:10.467Z,3.30
2024-01-21T03:00:38.366Z,2.05
2024-01-21T03:03:06.568Z,1.70
2024-01-21T03:05:34.391Z,1.98
2024-01-21T03:08:02.177Z,2.30
2024-01-21T03:10:29.975Z,2.25
2024-01-21T03:12:57.955Z,2.15
2024-01-21T03:15:27.113Z,0.98
2024-01-21T03:17:54.983Z,1.42
2024-01-21T03:20:22.892Z,1.55
2024-01-21T03:22:50.651Z,2.42
2024-01-21T03:25:18.573Z,1.17
2024-01-21T03:27:49.542Z,1.30
2024-01-21T03:30:17.794Z,2.58
2024-01-21T03:32:46.966Z,3.22
2024-01-21T03:35:15.015Z,1.13
2024-01-21T03:37:42.904Z,1.13
2024-01-21T03:40:11.364Z,1.33
2024-01-21T03:42:39.174Z,1.73
2024-01-21T03:45:08.156Z,1.73
2024-01-21T03:47:36.049Z,1.38
2024-01-21T03:50:05.788Z,1.83
2024-01-21T03:52:33.576Z,2.47
2024-01-21T03:55:02.742Z,1.20
2024-01-21T03:57:30.501Z,1.17
2024-01-21T03:59:58.269Z,1.15
2024-01-21T04:02:26.418Z,1.50
2024-01-21T04:04:54.797Z,2.35
2024-01-21T04:07:24.331Z,1.60
2024-01-21T04:09:52.179Z,1.40
2024-01-21T04:12:20.008Z,1.45
2024-01-21T04:14:48.078Z,1.42
2024-01-21T04:17:15.951Z,1.17
2024-01-21T04:19:43.778Z,1.27
2024-01-21T04:22:11.822Z,1.23
2024-01-21T04:24:40.946Z,1.25
2024-01-21T04:27:08.856Z,1.50
2024-01-21T04:29:36.636Z,1.52
2024-01-21T04:32:04.857Z,1.25
2024-01-21T04:34:32.723Z,1.50
2024-01-21T04:37:02.294Z,0.88
2024-01-21T04:39:30.894Z,1.67
2024-01-21T04:41:59.985Z,1.70
2024-01-21T04:44:27.925Z,1.55
2024-01-21T04:46:55.729Z,1.13
2024-01-21T04:49:23.568Z,1.63
2024-01-21T04:51:51.472Z,1.15
2024-01-21T04:54:19.384Z,2.10
2024-01-21T04:56:47.842Z,1.67
2024-01-21T04:59:16.946Z,1.05
2024-01-21T05:01:44.711Z,1.58
2024-01-21T05:04:12.558Z,2.63
2024-01-21T05:06:40.403Z,1.40
2024-01-21T05:09:08.416Z,2.65
2024-01-21T05:11:36.169Z,2.13
2024-01-21T05:14:04.006Z,1.02
2024-01-21T05:16:33.105Z,1.30
2024-01-21T05:19:00.994Z,1.90
2024-01-21T05:21:28.840Z,1.30
2024-01-21T05:23:56.822Z,0.93
2024-01-21T05:26:24.649Z,2.78
2024-01-21T05:28:54.108Z,1.58
2024-01-21T05:31:22.894Z,0.98
2024-01-21T05:33:52.113Z,1.67
2024-01-21T05:36:20.021Z,2.10
2024-01-21T05:38:47.989Z,2.45
2024-01-21T05:41:17.722Z,0.93
2024-01-21T05:43:45.839Z,1.33
2024-01-21T05:46:14.002Z,1.48
2024-01-21T05:48:41.855Z,2.05
2024-01-21T05:51:11.018Z,1.95
2024-01-21T05:53:42.778Z,1.15
2024-01-21T05:56:11.311Z,2.30
2024-01-21T05:58:39.226Z,0.47
2024-01-21T06:01:07.219Z,0.98
2024-01-21T06:03:35.167Z,1.00
2024-01-21T06:06:03.024Z,0.68
2024-01-21T06:08:32.107Z,4.13
2024-01-21T06:10:59.905Z,1.08
2024-01-21T06:13:27.664Z,0.90
2024-01-21T06:15:56.348Z,1.02
2024-01-21T06:18:24.337Z,0.90
2024-01-21T06:20:52.239Z,0.80
2024-01-21T06:23:20.008Z,1.33
2024-01-21T06:25:49.126Z,1.83
2024-01-21T06:28:17.503Z,3.63
2024-01-21T06:30:45.349Z,1.38
2024-01-21T06:33:13.683Z,1.00
2024-01-21T06:35:41.582Z,4.15
2024-01-21T06:38:09.345Z,1.02
2024-01-21T06:40:37.408Z,0.65
2024-01-21T06:43:06.545Z,0.82
2024-01-21T06:45:34.401Z,1.05
2024-01-21T06:48:02.277Z,1.25
2024-01-21T06:50:30.132Z,1.10
2024-01-21T06:52:57.916Z,0.98
2024-01-21T06:55:26.322Z,1.00
2024-01-21T06:57:54.106Z,0.90
2024-01-21T07:00:23.415Z,1.45
2024-01-21T07:02:51.197Z,1.00
2024-01-21T07:05:19.012Z,1.17
2024-01-21T07:07:48.595Z,0.90
2024-01-21T07:10:17.865Z,1.05
2024-01-21T07:12:45.682Z,1.60
2024-01-21T07:15:13.524Z,0.60
2024-01-21T07:17:42.963Z,0.68
2024-01-21T07:20:13.116Z,1.02
2024-01-21T07:22:41.045Z,1.10
2024-01-21T07:25:09.653Z,0.55
2024-01-21T07:27:37.519Z,0.85
2024-01-21T07:30:07.232Z,0.57
2024-01-21T07:32:35.097Z,0.60
2024-01-21T07:35:04.802Z,0.32
2024-01-21T07:37:32.865Z,0.70
2024-01-21T07:40:00.782Z,1.80
2024-01-21T07:42:28.685Z,1.80
2024-01-21T07:44:56.466Z,4.32
2024-01-21T07:47:24.354Z,1.00
2024-01-21T07:49:52.805Z,0.93
2024-01-21T07:52:22.038Z,0.95
2024-01-21T07:54:49.916Z,1.40
2024-01-21T07:57:17.809Z,0.95
2024-01-21T07:59:45.783Z,1.15
2024-01-21T08:02:13.731Z,3.05
2024-01-21T08:04:41.551Z,0.80
2024-01-21T08:07:09.666Z,0.85
2024-01-21T08:09:39.087Z,3.35
2024-01-21T08:12:07.932Z,2.00
2024-01-21T08:14:35.721Z,2.05
2024-01-21T08:17:04.040Z,0.45
2024-01-21T08:19:34.748Z,1.35
2024-01-21T08:22:02.832Z,1.13
2024-01-21T08:24:31.307Z,1.13
2024-01-21T08:27:01.928Z,1.55
2024-01-21T08:29:30.174Z,2.10
2024-01-21T08:32:00.351Z,0.60
2024-01-21T08:34:31.301Z,3.90
2024-01-21T08:36:59.469Z,1.77
2024-01-21T08:39:27.380Z,2.30
2024-01-21T08:41:55.172Z,1.65
2024-01-21T08:44:24.599Z,0.95
2024-01-21T08:46:52.344Z,3.65
2024-01-21T08:49:20.192Z,0.93
2024-01-21T08:51:48.105Z,6.22
2024-01-21T08:54:16.209Z,1.02
2024-01-21T08:56:44.038Z,0.77
2024-01-21T08:59:11.871Z,1.30
2024-01-21T09:01:41.031Z,1.33
2024-01-21T09:04:10.466Z,1.42
2024-01-21T09:06:42.929Z,2.92
2024-01-21T09:09:13.248Z,5.20
2024-01-21T09:11:42.093Z,3.97
2024-01-21T09:14:29.325Z,4.22
2024-01-21T09:16:58.540Z,7.97
2024-01-21T09:19:26.388Z,8.98
2024-01-21T09:21:54.557Z,6.53
2024-01-21T09:24:22.666Z,2.53
2024-01-21T09:26:50.445Z,5.20
2024-01-21T09:29:18.250Z,2.63
2024-01-21T09:31:54.717Z,6.40
2024-01-21T09:34:24.297Z,7.57
2024-01-21T09:36:53.777Z,5.03
2024-01-21T09:39:21.881Z,3.00
2024-01-21T09:41:51.133Z,5.03
2024-01-21T09:44:20.988Z,6.07
2024-01-21T09:46:53.320Z,4.75
2024-01-21T09:49:23.034Z,6.00
2024-01-21T09:51:51.688Z,3.03
2024-01-21T09:54:20.463Z,5.88
2024-01-21T09:56:49.150Z,4.05
2024-01-21T09:59:18.122Z,10.60
2024-01-21T10:01:46.083Z,7.15
2024-01-21T10:04:15.925Z,3.85
2024-01-21T10:06:46.049Z,5.65
2024-01-21T10:09:14.771Z,7.60
2024-01-21T10:11:43.124Z,5.35
2024-01-21T10:14:12.078Z,5.88
2024-01-21T10:16:43.635Z,5.43
2024-01-21T10:19:15.429Z,6.03
2024-01-21T10:21:44.885Z,5.82
2024-01-21T10:24:13.377Z,3.78
2024-01-21T10:26:44.150Z,4.55
2024-01-21T10:29:12.684Z,6.15
2024-01-21T10:31:40.594Z,5.70
2024-01-21T10:34:08.589Z,4.60
2024-01-21T10:36:37.177Z,8.82
2024-01-21T10:39:07.941Z,5.45
2024-01-21T10:41:36.674Z,8.27
2024-01-21T10:44:05.156Z,4.80
2024-01-21T10:46:34.428Z,8.73
2024-01-21T10:49:03.177Z,7.55
2024-01-21T10:51:31.531Z,5.93
2024-01-21T10:54:00.634Z,10.82
2024-01-21T10:56:29.818Z,5.95
2024-01-21T10:58:58.048Z,5.85
2024-01-21T11:01:26.861Z,4.40
2024-01-21T11:04:07.658Z,5.20
2024-01-21T11:06:36.042Z,9.95
2024-01-21T11:09:05.005Z,8.95
2024-01-21T11:11:42.893Z,7.50
2024-01-21T11:14:35.803Z,10.15
2024-01-21T11:17:05.487Z,6.07
2024-01-21T11:19:40.527Z,7.22
2024-01-21T11:22:12.753Z,10.40
2024-01-21T11:24:42.659Z,6.20
2024-01-21T11:27:19.395Z,9.35
2024-01-21T11:29:49.521Z,6.68
2024-01-21T11:32:21.695Z,14.40
2024-01-21T11:34:49.635Z,8.52
2024-01-21T11:37:17.411Z,9.80
2024-01-21T11:39:45.962Z,6.45
2024-01-21T11:42:13.924Z,5.80
2024-01-21T11:44:43.156Z,9.55
2024-01-21T11:47:12.239Z,9.32
2024-01-21T11:49:40.215Z,5.70
2024-01-21T11:52:08.695Z,8.35
2024-01-21T11:54:39.350Z,9.00
2024-01-21T11:57:07.654Z,10.15
2024-01-21T11:59:36.869Z,8.50
2024-01-21T12:02:08.485Z,9.05
2024-01-21T12:04:36.600Z,11.60
2024-01-21T12:07:05.267Z,9.85
2024-01-21T12:09:33.613Z,12.02
2024-01-21T12:12:01.407Z,11.52
2024-01-21T12:14:29.150Z,9.90
2024-01-21T12:16:56.922Z,13.73
2024-01-21T12:19:28.363Z,3.58
2024-01-21T12:21:56.837Z,6.35
2024-01-21T12:24:24.899Z,4.35
2024-01-21T12:26:54.505Z,8.02
2024-01-21T12:29:22.534Z,13.82
2024-01-21T12:31:50.968Z,10.43
2024-01-21T12:34:20.174Z,12.63
2024-01-21T12:36:51.557Z,4.88
2024-01-21T12:39:22.811Z,8.00
2024-01-21T12:41:50.960Z,7.95
2024-01-21T12:44:18.862Z,7.63
2024-01-21T12:46:48.362Z,8.52
2024-01-21T12:49:17.196Z,7.13
2024-01-21T12:51:46.745Z,7.57
2024-01-21T12:54:16.219Z,15.60
2024-01-21T12:56:44.030Z,6.53
2024-01-21T12:59:14.472Z,6.68
2024-01-21T13:01:42.334Z,12.90
2024-01-21T13:04:11.530Z,12.55
2024-01-21T13:06:39.617Z,9.98
2024-01-21T13:09:08.914Z,7.35
2024-01-21T13:11:38.049Z,9.80
2024-01-21T13:14:07.039Z,8.85
2024-01-21T13:16:36.963Z,8.40
2024-01-21T13:19:04.895Z,7.95
2024-01-21T13:21:32.882Z,10.57
2024-01-21T13:24:00.687Z,21.70
2024-01-21T13:26:28.587Z,16.08
2024-01-21T13:29:11.622Z,22.83
2024-01-21T13:31:40.943Z,17.30
2024-01-21T13:34:10.818Z,16.42
2024-01-21T13:36:38.840Z,12.80
2024-01-21T13:39:06.994Z,14.32
2024-01-21T13:41:35.014Z,11.30
2024-01-21T13:44:04.181Z,16.02
2024-01-21T13:46:32.002Z,12.30
2024-01-21T13:48:59.833Z,13.65
2024-01-21T13:51:27.772Z,15.02
2024-01-21T13:53:55.594Z,12.00
2024-01-21T13:56:24.569Z,14.88
2024-01-21T13:58:52.835Z,10.00
2024-01-21T14:01:22.162Z,16.60
2024-01-21T14:03:50.201Z,16.80
2024-01-21T14:06:20.285Z,12.85
2024-01-21T14:08:48.110Z,10.57
2024-01-21T14:11:15.896Z,10.45
2024-01-21T14:13:43.710Z,9.75
2024-01-21T14:16:12.704Z,10.15
2024-01-21T14:18:42.327Z,10.95
2024-01-21T14:21:10.337Z,11.30
2024-01-21T14:23:38.302Z,12.95
2024-01-21T14:26:10.238Z,15.00
2024-01-21T14:28:42.005Z,13.25
2024-01-21T14:31:10.193Z,12.38
2024-01-21T14:33:38.792Z,8.73
2024-01-21T14:36:09.836Z,8.10
2024-01-21T14:38:39.139Z,13.13
2024-01-21T14:41:07.267Z,12.93
2024-01-21T14:43:35.086Z,12.75
2024-01-21T14:46:03.101Z,10.10
2024-01-21T14:48:31.097Z,16.10
2024-01-21T14:50:58.893Z,12.23
2024-01-21T14:53:28.058Z,11.25
2024-01-21T14:55:56.189Z,14.18
2024-01-21T14:58:23.970Z,17.90
2024-01-21T15:00:51.835Z,17.13
2024-01-21T15:03:19.701Z,14.63
2024-01-21T15:05:47.459Z,13.68
2024-01-21T15:08:15.456Z,22.40
2024-01-21T15:11:01.891Z,13.73
2024-01-21T15:13:31.754Z,15.60
2024-01-21T15:16:00.434Z,10.80
2024-01-21T15:18:34.454Z,10.55
2024-01-21T15:21:03.060Z,13.25
2024-01-21T15:23:31.334Z,12.13
2024-01-21T15:26:01.197Z,15.23
2024-01-21T15:28:30.400Z,10.05
2024-01-21T15:30:58.394Z,10.38
2024-01-21T15:33:27.512Z,14.32
2024-01-21T15:35:56.745Z,10.82
2024-01-21T15:38:24.588Z,13.70
2024-01-21T15:40:52.506Z,12.60
2024-01-21T15:43:20.590Z,13.25
2024-01-21T15:45:49.801Z,10.13
2024-01-21T15:48:17.658Z,14.55
2024-01-21T15:50:45.750Z,10.98
2024-01-21T15:53:13.896Z,7.97
2024-01-21T15:55:41.649Z,7.32
2024-01-21T15:58:09.491Z,12.20
2024-01-21T16:00:38.710Z,7.88
2024-01-21T16:03:08.139Z,8.23
2024-01-21T16:05:36.097Z,11.07
2024-01-21T16:08:03.972Z,7.80
2024-01-21T16:10:31.843Z,8.90
2024-01-21T16:12:59.900Z,14.10
2024-01-21T16:15:40.079Z,12.05
2024-01-21T16:18:16.929Z,6.82
2024-01-21T16:20:46.382Z,11.05
2024-01-21T16:23:15.274Z,10.10
2024-01-21T16:25:44.120Z,9.82
2024-01-21T16:28:11.938Z,8.40
2024-01-21T16:30:39.881Z,9.98
2024-01-21T16:33:08.073Z,8.48
2024-01-21T16:35:39.104Z,14.25
2024-01-21T16:38:07.412Z,7.93
2024-01-21T16:40:35.199Z,5.38
2024-01-21T16:43:03.063Z,8.75
2024-01-21T16:45:33.492Z,7.40
2024-01-21T16:48:01.638Z,12.98
2024-01-21T16:50:29.525Z,7.20
2024-01-21T16:53:04.092Z,6.70
2024-01-21T16:55:32.018Z,10.07
2024-01-21T16:57:59.813Z,9.57
2024-01-21T17:00:31.927Z,10.85
2024-01-21T17:03:00.380Z,12.57
2024-01-21T17:05:28.293Z,13.20
2024-01-21T17:07:56.117Z,18.23
2024-01-21T17:10:31.066Z,12.43
2024-01-21T17:12:59.120Z,13.25
2024-01-21T17:15:27.028Z,10.02
2024-01-21T17:17:59.809Z,12.48
2024-01-21T17:20:27.852Z,12.13
2024-01-21T17:22:55.704Z,14.02
2024-01-21T17:25:25.319Z,9.68
2024-01-21T17:27:53.162Z,14.45
2024-01-21T17:30:22.246Z,8.50
2024-01-21T17:32:50.173Z,11.73
2024-01-21T17:35:18.087Z,11.07
2024-01-21T17:37:47.684Z,11.93
2024-01-21T17:40:15.929Z,8.50
2024-01-21T17:42:45.193Z,10.95
2024-01-21T17:45:15.898Z,10.73
2024-01-21T17:47:46.071Z,14.00
2024-01-21T17:50:14.002Z,4.93
2024-01-21T17:52:42.614Z,7.35
2024-01-21T17:55:10.655Z,7.88
2024-01-21T17:57:38.462Z,9.13
2024-01-21T18:00:09.527Z,10.15
2024-01-21T18:02:38.215Z,6.18
2024-01-21T18:05:07.398Z,9.00
2024-01-21T18:07:35.853Z,9.10
2024-01-21T18:10:03.726Z,11.05
2024-01-21T18:12:31.867Z,6.45
2024-01-21T18:15:00.345Z,13.98
2024-01-21T18:17:30.066Z,29.40
2024-01-21T18:19:58.096Z,23.95
2024-01-21T18:22:26.019Z,38.10
2024-01-21T18:24:54.150Z,35.30
2024-01-21T18:27:24.000Z,58.13
2024-01-21T18:29:51.927Z,47.70
2024-01-21T18:32:24.717Z,34.75
2024-01-21T18:34:55.222Z,46.55
2024-01-21T18:37:24.690Z,33.92
2024-01-21T18:39:52.970Z,34.97
2024-01-21T18:42:20.904Z,36.92
2024-01-21T18:44:48.921Z,34.78
2024-01-21T18:47:17.286Z,50.38
2024-01-21T18:49:45.373Z,29.30
2024-01-21T18:52:14.567Z,35.00
2024-01-21T18:54:42.897Z,41.83
2024-01-21T18:57:12.346Z,29.13
2024-01-21T18:59:44.211Z,34.92
2024-01-21T19:02:12.630Z,36.47
2024-01-21T19:04:45.052Z,33.83
2024-01-21T19:07:18.709Z,36.53
2024-01-21T19:09:46.724Z,27.52
2024-01-21T19:12:17.637Z,28.58
2024-01-21T19:14:46.409Z,28.00
2024-01-21T19:17:14.251Z,34.75
2024-01-21T19:19:42.905Z,30.77
2024-01-21T19:22:10.823Z,35.03
2024-01-21T19:24:41.620Z,20.60
2024-01-21T19:27:09.844Z,23.80
2024-01-21T19:29:37.760Z,22.13
2024-01-21T19:32:06.207Z,29.20
2024-01-21T19:34:34.105Z,25.63
2024-01-21T19:37:01.919Z,23.02
2024-01-21T19:39:29.881Z,23.80
2024-01-21T19:41:59.111Z,26.70
2024-01-21T19:44:27.006Z,28.63
2024-01-21T19:46:55.520Z,23.08
2024-01-21T19:49:23.400Z,20.08
2024-01-21T19:51:51.231Z,22.10
2024-01-21T19:54:19.047Z,23.30
2024-01-21T19:56:46.912Z,25.25
2024-01-21T19:59:16.256Z,28.77
2024-01-21T20:01:45.220Z,23.98
2024-01-21T20:04:14.380Z,27.35
2024-01-21T20:06:42.515Z,31.50
2024-01-21T20:09:11.747Z,30.33
2024-01-21T20:11:40.143Z,28.65
2024-01-21T20:14:09.902Z,24.67
2024-01-21T20:16:40.029Z,32.17
2024-01-21T20:19:08.236Z,30.13
2024-01-21T20:21:36.550Z,30.55
2024-01-21T20:24:04.940Z,27.30
2024-01-21T20:26:32.786Z,34.20
2024-01-21T20:29:00.603Z,27.90
2024-01-21T20:31:28.491Z,27.08
2024-01-21T20:33:57.842Z,30.05
2024-01-21T20:36:25.761Z,24.85
2024-01-21T20:38:53.646Z,33.30
2024-01-21T20:41:21.596Z,29.60
2024-01-21T20:43:49.423Z,24.50
2024-01-21T20:46:17.310Z,21.65
2024-01-21T20:48:46.590Z,28.70
2024-01-21T20:51:16.158Z,27.52
2024-01-21T20:53:49.300Z,22.27
2024-01-21T20:56:17.861Z,24.38
2024-01-21T20:58:45.718Z,23.02
2024-01-21T21:01:14.532Z,21.27
2024-01-21T21:03:43.081Z,25.50
2024-01-21T21:06:11.288Z,24.83
2024-01-21T21:08:41.474Z,21.40
2024-01-21T21:11:09.512Z,23.65
2024-01-21T21:13:37.362Z,18.70
2024-01-21T21:16:05.757Z,21.48
2024-01-21T21:18:33.961Z,22.73
2024-01-21T21:21:03.373Z,24.65
2024-01-21T21:23:31.413Z,18.27
2024-01-21T21:26:00.728Z,19.00
2024-01-21T21:28:28.499Z,20.95
2024-01-21T21:30:56.458Z,24.33
2024-01-21T21:33:27.456Z,18.88
2024-01-21T21:35:55.697Z,21.40
2024-01-21T21:38:23.557Z,16.58
2024-01-21T21:40:53.711Z,22.50
2024-01-21T21:43:23.051Z,18.42
2024-01-21T21:45:51.720Z,22.48
2024-01-21T21:48:20.207Z,18.73
2024-01-21T21:50:49.673Z,19.85
2024-01-21T21:53:17.678Z,21.88
2024-01-21T21:55:46.470Z,13.52
2024-01-21T21:58:14.945Z,23.95
2024-01-21T22:00:45.256Z,18.65
2024-01-21T22:03:13.271Z,19.90
2024-01-21T22:05:41.189Z,17.00
2024-01-21T22:08:09.387Z,16.98
2024-01-21T22:10:37.434Z,17.33
2024-01-21T22:13:05.748Z,17.63
2024-01-21T22:15:35.259Z,15.70
2024-01-21T22:18:04.644Z,16.63
2024-01-21T22:20:32.615Z,20.98
2024-01-21T22:23:00.490Z,12.18
2024-01-21T22:25:28.555Z,12.88
2024-01-21T22:27:56.408Z,10.75
2024-01-21T22:30:24.526Z,12.38
2024-01-21T22:32:52.488Z,10.90
2024-01-21T22:35:21.635Z,12.05
2024-01-21T22:37:49.559Z,9.27
2024-01-21T22:40:17.845Z,12.43
2024-01-21T22:42:46.321Z,10.38
2024-01-21T22:45:14.332Z,13.05
2024-01-21T22:47:42.448Z,7.97
2024-01-21T22:50:10.797Z,11.45
2024-01-21T22:52:40.094Z,11.65
2024-01-21T22:55:09.363Z,9.30
2024-01-21T22:57:37.590Z,11.88
2024-01-21T23:00:09.789Z,9.00
2024-01-21T23:02:37.738Z,7.57
2024-01-21T23:05:06.189Z,12.50
2024-01-21T23:07:34.120Z,9.75
2024-01-21T23:10:03.561Z,11.90
2024-01-21T23:12:31.355Z,8.48
2024-01-21T23:14:59.205Z,10.68
2024-01-21T23:17:29.872Z,8.10
2024-01-21T23:19:57.927Z,8.10
2024-01-21T23:22:25.846Z,9.93
2024-01-21T23:24:53.652Z,9.00
2024-01-21T23:27:22.837Z,7.07
2024-01-21T23:29:50.874Z,8.70
2024-01-21T23:32:18.977Z,6.85
2024-01-21T23:34:46.890Z,9.07
2024-01-21T23:37:14.666Z,8.95
2024-01-21T23:39:42.436Z,9.32
2024-01-21T23:42:10.337Z,9.30
2024-01-21T23:44:39.513Z,7.18
2024-01-21T23:47:07.979Z,11.52
2024-01-21T23:49:35.839Z,7.97
2024-01-21T23:52:03.688Z,6.63
2024-01-21T23:54:31.430Z,6.13
2024-01-21T23:56:59.303Z,8.48
2024-01-21T23:59:27.111Z,6.57
